sensor_id;sensor_type;location;lat;lon;timestamp;temperature;humidity
18613;DHT22;9436;52.152;21.032;2023-02-28T00:00:13;0.00;99.90
18613;DHT22;9436;52.152;21.032;2023-02-28T00:02:42;0.00;99.90
18613;DHT22;9436;52.152;21.032;2023-02-28T00:05:11;0.00;99.90
18613;DHT22;9436;52.152;21.032;2023-02-28T00:07:38;0.00;99.90
18613;DHT22;9436;52.152;21.032;2023-02-28T00:10:07;-0.10;99.90
18613;DHT22;9436;52.152;21.032;2023-02-28T00:12:36;-0.10;99.90
18613;DHT22;9436;52.152;21.032;2023-02-28T00:15:09;-0.10;99.90
18613;DHT22;9436;52.152;21.032;2023-02-28T00:17:36;-0.10;99.90
18613;DHT22;9436;52.152;21.032;2023-02-28T00:20:05;-0.10;99.90
18613;DHT22;9436;52.152;21.032;2023-02-28T00:22:33;-0.20;99.90
18613;DHT22;9436;52.152;21.032;2023-02-28T00:25:01;-0.20;99.90
18613;DHT22;9436;52.152;21.032;2023-02-28T00:27:28;-0.20;99.90
18613;DHT22;9436;52.152;21.032;2023-02-28T00:29:56;-0.20;99.90
18613;DHT22;9436;52.152;21.032;2023-02-28T00:32:23;-0.10;99.90
18613;DHT22;9436;52.152;21.032;2023-02-28T00:34:50;-0.10;99.90
18613;DHT22;9436;52.152;21.032;2023-02-28T00:37:17;-0.20;99.90
18613;DHT22;9436;52.152;21.032;2023-02-28T00:39:45;-0.30;99.90
18613;DHT22;9436;52.152;21.032;2023-02-28T00:42:12;-0.40;99.90
18613;DHT22;9436;52.152;21.032;2023-02-28T00:44:39;-0.50;99.90
18613;DHT22;9436;52.152;21.032;2023-02-28T00:47:07;-0.50;99.90
18613;DHT22;9436;52.152;21.032;2023-02-28T00:49:35;-0.40;99.90
18613;DHT22;9436;52.152;21.032;2023-02-28T00:52:02;-0.40;99.90
18613;DHT22;9436;52.152;21.032;2023-02-28T00:54:29;-0.40;99.90
18613;DHT22;9436;52.152;21.032;2023-02-28T00:56:56;-0.50;99.90
18613;DHT22;9436;52.152;21.032;2023-02-28T00:59:23;-0.40;99.90
18613;DHT22;9436;52.152;21.032;2023-02-28T01:01:50;-0.50;99.90
18613;DHT22;9436;52.152;21.032;2023-02-28T01:04:19;-0.50;99.90
18613;DHT22;9436;52.152;21.032;2023-02-28T01:06:46;-0.50;99.90
18613;DHT22;9436;52.152;21.032;2023-02-28T01:09:13;-0.60;99.90
18613;DHT22;9436;52.152;21.032;2023-02-28T01:11:41;-0.50;99.90
18613;DHT22;9436;52.152;21.032;2023-02-28T01:14:12;-0.50;99.90
18613;DHT22;9436;52.152;21.032;2023-02-28T01:16:40;-0.50;99.90
18613;DHT22;9436;52.152;21.032;2023-02-28T01:19:07;-0.60;99.90
18613;DHT22;9436;52.152;21.032;2023-02-28T01:21:36;-0.60;99.90
18613;DHT22;9436;52.152;21.032;2023-02-28T01:24:03;-0.60;99.90
18613;DHT22;9436;52.152;21.032;2023-02-28T01:26:31;-0.60;99.90
18613;DHT22;9436;52.152;21.032;2023-02-28T01:28:58;-0.70;99.90
18613;DHT22;9436;52.152;21.032;2023-02-28T01:31:25;-0.70;99.90
18613;DHT22;9436;52.152;21.032;2023-02-28T01:33:52;-0.70;99.90
18613;DHT22;9436;52.152;21.032;2023-02-28T01:36:21;-0.70;99.90
18613;DHT22;9436;52.152;21.032;2023-02-28T01:38:51;-0.80;99.90
18613;DHT22;9436;52.152;21.032;2023-02-28T01:41:21;-0.80;99.90
18613;DHT22;9436;52.152;21.032;2023-02-28T01:44:00;-0.80;99.90
18613;DHT22;9436;52.152;21.032;2023-02-28T01:46:30;-0.90;99.90
18613;DHT22;9436;52.152;21.032;2023-02-28T01:49:02;-0.90;99.90
18613;DHT22;9436;52.152;21.032;2023-02-28T01:51:34;-0.90;99.90
18613;DHT22;9436;52.152;21.032;2023-02-28T01:54:07;-1.00;99.90
18613;DHT22;9436;52.152;21.032;2023-02-28T01:56:41;-1.10;99.90
18613;DHT22;9436;52.152;21.032;2023-02-28T01:59:13;-1.10;99.90
18613;DHT22;9436;52.152;21.032;2023-02-28T02:01:41;-1.00;99.90
18613;DHT22;9436;52.152;21.032;2023-02-28T02:04:09;-0.90;99.90
18613;DHT22;9436;52.152;21.032;2023-02-28T02:06:41;-1.00;99.90
18613;DHT22;9436;52.152;21.032;2023-02-28T02:09:12;-1.00;99.90
18613;DHT22;9436;52.152;21.032;2023-02-28T02:11:40;-1.10;99.90
18613;DHT22;9436;52.152;21.032;2023-02-28T02:14:30;-1.00;99.90
18613;DHT22;9436;52.152;21.032;2023-02-28T02:17:12;-1.10;99.90
18613;DHT22;9436;52.152;21.032;2023-02-28T02:32:07;-1.00;99.90
18613;DHT22;9436;52.152;21.032;2023-02-28T02:34:46;-0.90;99.90
18613;DHT22;9436;52.152;21.032;2023-02-28T02:37:27;-1.00;99.90
18613;DHT22;9436;52.152;21.032;2023-02-28T02:40:03;-1.00;99.90
18613;DHT22;9436;52.152;21.032;2023-02-28T02:42:37;-1.00;99.90
18613;DHT22;9436;52.152;21.032;2023-02-28T02:45:09;-0.90;99.90
18613;DHT22;9436;52.152;21.032;2023-02-28T02:47:40;-1.00;99.90
18613;DHT22;9436;52.152;21.032;2023-02-28T02:50:14;-1.10;99.90
18613;DHT22;9436;52.152;21.032;2023-02-28T02:52:50;-1.00;99.90
18613;DHT22;9436;52.152;21.032;2023-02-28T02:55:18;-1.10;99.90
18613;DHT22;9436;52.152;21.032;2023-02-28T02:57:49;-1.00;99.90
18613;DHT22;9436;52.152;21.032;2023-02-28T03:00:20;-1.10;99.90
18613;DHT22;9436;52.152;21.032;2023-02-28T03:02:49;-1.30;99.90
18613;DHT22;9436;52.152;21.032;2023-02-28T03:05:23;-1.10;99.90
18613;DHT22;9436;52.152;21.032;2023-02-28T03:07:52;-1.10;99.90
18613;DHT22;9436;52.152;21.032;2023-02-28T03:10:35;-1.20;99.90
18613;DHT22;9436;52.152;21.032;2023-02-28T03:13:14;-1.20;99.90
18613;DHT22;9436;52.152;21.032;2023-02-28T03:15:57;-1.30;99.90
18613;DHT22;9436;52.152;21.032;2023-02-28T03:18:30;-1.20;99.90
18613;DHT22;9436;52.152;21.032;2023-02-28T03:21:06;-1.20;99.90
18613;DHT22;9436;52.152;21.032;2023-02-28T03:23:41;-1.30;99.90
18613;DHT22;9436;52.152;21.032;2023-02-28T03:26:16;-1.20;99.90
18613;DHT22;9436;52.152;21.032;2023-02-28T03:28:51;-1.10;99.90
18613;DHT22;9436;52.152;21.032;2023-02-28T03:31:21;-1.20;99.90
18613;DHT22;9436;52.152;21.032;2023-02-28T03:33:54;-1.30;99.90
18613;DHT22;9436;52.152;21.032;2023-02-28T03:36:25;-1.30;99.90
18613;DHT22;9436;52.152;21.032;2023-02-28T03:38:55;-1.30;99.90
18613;DHT22;9436;52.152;21.032;2023-02-28T03:41:32;-1.30;99.90
18613;DHT22;9436;52.152;21.032;2023-02-28T03:44:07;-1.20;99.90
18613;DHT22;9436;52.152;21.032;2023-02-28T03:46:45;-1.20;99.90
18613;DHT22;9436;52.152;21.032;2023-02-28T03:49:16;-1.30;99.90
18613;DHT22;9436;52.152;21.032;2023-02-28T03:51:47;-1.30;99.90
18613;DHT22;9436;52.152;21.032;2023-02-28T03:54:19;-1.20;99.90
18613;DHT22;9436;52.152;21.032;2023-02-28T03:56:52;-1.30;99.90
18613;DHT22;9436;52.152;21.032;2023-02-28T03:59:24;-1.30;99.90
18613;DHT22;9436;52.152;21.032;2023-02-28T04:01:53;-1.20;99.90
18613;DHT22;9436;52.152;21.032;2023-02-28T04:04:21;-1.20;99.90
18613;DHT22;9436;52.152;21.032;2023-02-28T04:06:52;-1.00;99.90
18613;DHT22;9436;52.152;21.032;2023-02-28T04:09:21;-1.10;99.90
18613;DHT22;9436;52.152;21.032;2023-02-28T04:11:51;-1.10;99.90
18613;DHT22;9436;52.152;21.032;2023-02-28T04:14:18;-1.00;99.90
18613;DHT22;9436;52.152;21.032;2023-02-28T04:16:45;-1.00;99.90
18613;DHT22;9436;52.152;21.032;2023-02-28T04:19:13;-0.90;99.90
18613;DHT22;9436;52.152;21.032;2023-02-28T04:21:42;-1.00;99.90
18613;DHT22;9436;52.152;21.032;2023-02-28T04:24:12;-1.10;99.90
18613;DHT22;9436;52.152;21.032;2023-02-28T04:26:41;-1.10;99.90
18613;DHT22;9436;52.152;21.032;2023-02-28T04:29:10;-1.10;99.90
18613;DHT22;9436;52.152;21.032;2023-02-28T04:31:39;-1.20;99.90
18613;DHT22;9436;52.152;21.032;2023-02-28T04:34:06;-1.20;99.90
18613;DHT22;9436;52.152;21.032;2023-02-28T04:36:33;-1.30;99.90
18613;DHT22;9436;52.152;21.032;2023-02-28T04:39:00;-1.20;99.90
18613;DHT22;9436;52.152;21.032;2023-02-28T04:41:29;-1.20;99.90
18613;DHT22;9436;52.152;21.032;2023-02-28T04:43:57;-1.20;99.90
18613;DHT22;9436;52.152;21.032;2023-02-28T04:46:24;-1.20;99.90
18613;DHT22;9436;52.152;21.032;2023-02-28T04:48:51;-1.30;99.90
18613;DHT22;9436;52.152;21.032;2023-02-28T04:51:19;-1.30;99.90
18613;DHT22;9436;52.152;21.032;2023-02-28T04:53:47;-1.20;99.90
18613;DHT22;9436;52.152;21.032;2023-02-28T04:56:16;-1.30;99.90
18613;DHT22;9436;52.152;21.032;2023-02-28T04:58:45;-1.30;99.90
18613;DHT22;9436;52.152;21.032;2023-02-28T05:01:21;-1.30;99.90
18613;DHT22;9436;52.152;21.032;2023-02-28T05:03:49;-1.40;99.90
18613;DHT22;9436;52.152;21.032;2023-02-28T05:06:17;-1.40;99.90
18613;DHT22;9436;52.152;21.032;2023-02-28T05:08:44;-1.40;99.90
18613;DHT22;9436;52.152;21.032;2023-02-28T05:11:18;-1.40;99.90
18613;DHT22;9436;52.152;21.032;2023-02-28T05:13:47;-1.40;99.90
18613;DHT22;9436;52.152;21.032;2023-02-28T05:16:14;-1.40;99.90
18613;DHT22;9436;52.152;21.032;2023-02-28T05:18:42;-1.40;99.90
18613;DHT22;9436;52.152;21.032;2023-02-28T05:21:23;-1.40;99.90
18613;DHT22;9436;52.152;21.032;2023-02-28T05:23:51;-1.40;99.90
18613;DHT22;9436;52.152;21.032;2023-02-28T05:26:19;-1.40;99.90
18613;DHT22;9436;52.152;21.032;2023-02-28T05:28:47;-1.50;99.90
18613;DHT22;9436;52.152;21.032;2023-02-28T05:31:14;-1.40;99.90
18613;DHT22;9436;52.152;21.032;2023-02-28T05:33:42;-1.40;99.90
18613;DHT22;9436;52.152;21.032;2023-02-28T05:36:09;-1.40;99.90
18613;DHT22;9436;52.152;21.032;2023-02-28T05:38:36;-1.30;99.90
18613;DHT22;9436;52.152;21.032;2023-02-28T05:41:06;-1.30;99.90
18613;DHT22;9436;52.152;21.032;2023-02-28T05:43:34;-1.40;99.90
18613;DHT22;9436;52.152;21.032;2023-02-28T05:46:04;-1.40;99.90
18613;DHT22;9436;52.152;21.032;2023-02-28T05:48:32;-1.30;99.90
18613;DHT22;9436;52.152;21.032;2023-02-28T05:50:59;-1.20;99.90
18613;DHT22;9436;52.152;21.032;2023-02-28T05:53:27;-1.20;99.90
18613;DHT22;9436;52.152;21.032;2023-02-28T05:55:54;-1.20;99.90
18613;DHT22;9436;52.152;21.032;2023-02-28T05:58:21;-1.00;99.90
18613;DHT22;9436;52.152;21.032;2023-02-28T06:00:49;-1.00;99.90
18613;DHT22;9436;52.152;21.032;2023-02-28T06:03:17;-1.00;99.90
18613;DHT22;9436;52.152;21.032;2023-02-28T06:05:44;-0.90;99.90
18613;DHT22;9436;52.152;21.032;2023-02-28T06:08:11;-1.00;99.90
18613;DHT22;9436;52.152;21.032;2023-02-28T06:10:38;-1.00;99.90
18613;DHT22;9436;52.152;21.032;2023-02-28T06:13:05;-0.90;99.90
18613;DHT22;9436;52.152;21.032;2023-02-28T06:15:33;-0.80;99.90
18613;DHT22;9436;52.152;21.032;2023-02-28T06:18:00;-0.70;99.90
18613;DHT22;9436;52.152;21.032;2023-02-28T06:20:29;-0.80;99.90
18613;DHT22;9436;52.152;21.032;2023-02-28T06:22:56;-0.70;99.90
18613;DHT22;9436;52.152;21.032;2023-02-28T06:25:24;-0.50;99.90
18613;DHT22;9436;52.152;21.032;2023-02-28T06:27:51;-0.60;99.90
18613;DHT22;9436;52.152;21.032;2023-02-28T06:30:18;-0.20;99.90
18613;DHT22;9436;52.152;21.032;2023-02-28T06:32:49;0.10;99.90
18613;DHT22;9436;52.152;21.032;2023-02-28T06:35:16;0.70;99.90
18613;DHT22;9436;52.152;21.032;2023-02-28T06:37:45;1.00;99.90
18613;DHT22;9436;52.152;21.032;2023-02-28T06:40:13;0.80;99.90
18613;DHT22;9436;52.152;21.032;2023-02-28T06:42:40;1.00;99.90
18613;DHT22;9436;52.152;21.032;2023-02-28T06:45:08;1.20;99.90
18613;DHT22;9436;52.152;21.032;2023-02-28T06:47:35;1.30;99.90
18613;DHT22;9436;52.152;21.032;2023-02-28T06:50:03;1.30;99.90
18613;DHT22;9436;52.152;21.032;2023-02-28T06:52:31;1.10;99.90
18613;DHT22;9436;52.152;21.032;2023-02-28T06:54:59;1.80;99.90
18613;DHT22;9436;52.152;21.032;2023-02-28T06:57:28;2.60;99.90
18613;DHT22;9436;52.152;21.032;2023-02-28T06:59:57;2.50;99.90
18613;DHT22;9436;52.152;21.032;2023-02-28T07:02:24;2.70;99.90
18613;DHT22;9436;52.152;21.032;2023-02-28T07:04:51;3.40;99.90
18613;DHT22;9436;52.152;21.032;2023-02-28T07:07:18;3.60;99.90
18613;DHT22;9436;52.152;21.032;2023-02-28T07:09:45;3.30;99.90
18613;DHT22;9436;52.152;21.032;2023-02-28T07:12:14;3.00;99.90
18613;DHT22;9436;52.152;21.032;2023-02-28T07:14:41;2.60;99.90
18613;DHT22;9436;52.152;21.032;2023-02-28T07:17:08;2.20;99.90
18613;DHT22;9436;52.152;21.032;2023-02-28T07:19:37;2.40;99.90
18613;DHT22;9436;52.152;21.032;2023-02-28T07:22:04;2.20;99.90
18613;DHT22;9436;52.152;21.032;2023-02-28T07:24:32;2.00;99.90
18613;DHT22;9436;52.152;21.032;2023-02-28T07:26:59;2.10;99.90
18613;DHT22;9436;52.152;21.032;2023-02-28T07:29:27;1.90;99.90
18613;DHT22;9436;52.152;21.032;2023-02-28T07:31:55;2.30;99.90
18613;DHT22;9436;52.152;21.032;2023-02-28T07:34:23;2.70;99.90
18613;DHT22;9436;52.152;21.032;2023-02-28T07:36:53;3.10;99.90
18613;DHT22;9436;52.152;21.032;2023-02-28T07:39:21;3.00;99.90
18613;DHT22;9436;52.152;21.032;2023-02-28T07:41:48;3.10;99.90
18613;DHT22;9436;52.152;21.032;2023-02-28T07:44:15;3.10;99.90
18613;DHT22;9436;52.152;21.032;2023-02-28T07:46:44;4.10;99.90
18613;DHT22;9436;52.152;21.032;2023-02-28T07:49:11;4.30;99.90
18613;DHT22;9436;52.152;21.032;2023-02-28T07:51:38;5.00;99.90
18613;DHT22;9436;52.152;21.032;2023-02-28T07:54:05;5.50;99.90
18613;DHT22;9436;52.152;21.032;2023-02-28T07:56:33;6.00;99.90
18613;DHT22;9436;52.152;21.032;2023-02-28T07:59:00;5.10;99.90
18613;DHT22;9436;52.152;21.032;2023-02-28T08:01:28;4.40;99.90
18613;DHT22;9436;52.152;21.032;2023-02-28T08:03:56;3.80;99.90
18613;DHT22;9436;52.152;21.032;2023-02-28T08:06:24;3.40;99.90
18613;DHT22;9436;52.152;21.032;2023-02-28T08:08:53;2.90;99.90
18613;DHT22;9436;52.152;21.032;2023-02-28T08:11:21;2.50;99.90
18613;DHT22;9436;52.152;21.032;2023-02-28T08:13:48;2.40;99.90
18613;DHT22;9436;52.152;21.032;2023-02-28T08:16:16;2.30;99.90
18613;DHT22;9436;52.152;21.032;2023-02-28T08:18:48;2.30;99.90
18613;DHT22;9436;52.152;21.032;2023-02-28T08:21:17;2.30;99.90
18613;DHT22;9436;52.152;21.032;2023-02-28T08:23:46;2.40;99.90
18613;DHT22;9436;52.152;21.032;2023-02-28T08:26:14;2.30;99.90
18613;DHT22;9436;52.152;21.032;2023-02-28T08:28:41;2.20;99.90
18613;DHT22;9436;52.152;21.032;2023-02-28T08:31:10;2.10;99.90
18613;DHT22;9436;52.152;21.032;2023-02-28T08:33:39;2.00;99.90
18613;DHT22;9436;52.152;21.032;2023-02-28T08:36:07;2.00;99.90
18613;DHT22;9436;52.152;21.032;2023-02-28T08:38:36;2.10;99.90
18613;DHT22;9436;52.152;21.032;2023-02-28T08:41:05;2.20;99.90
18613;DHT22;9436;52.152;21.032;2023-02-28T08:43:33;2.30;99.90
18613;DHT22;9436;52.152;21.032;2023-02-28T08:46:00;2.40;99.90
18613;DHT22;9436;52.152;21.032;2023-02-28T08:48:29;3.00;99.90
18613;DHT22;9436;52.152;21.032;2023-02-28T08:50:57;3.40;99.90
18613;DHT22;9436;52.152;21.032;2023-02-28T08:53:24;3.20;99.90
18613;DHT22;9436;52.152;21.032;2023-02-28T08:55:59;3.10;99.90
18613;DHT22;9436;52.152;21.032;2023-02-28T08:58:27;2.90;99.90
18613;DHT22;9436;52.152;21.032;2023-02-28T09:00:55;2.70;99.90
18613;DHT22;9436;52.152;21.032;2023-02-28T09:03:22;2.60;99.90
18613;DHT22;9436;52.152;21.032;2023-02-28T09:05:54;2.60;99.90
18613;DHT22;9436;52.152;21.032;2023-02-28T09:08:22;2.50;99.90
18613;DHT22;9436;52.152;21.032;2023-02-28T09:10:50;2.50;99.90
18613;DHT22;9436;52.152;21.032;2023-02-28T09:13:19;2.60;99.90
18613;DHT22;9436;52.152;21.032;2023-02-28T09:15:46;2.50;99.90
18613;DHT22;9436;52.152;21.032;2023-02-28T09:18:14;2.70;99.90
18613;DHT22;9436;52.152;21.032;2023-02-28T09:20:42;2.80;99.90
18613;DHT22;9436;52.152;21.032;2023-02-28T09:23:11;2.70;99.90
18613;DHT22;9436;52.152;21.032;2023-02-28T09:25:45;2.50;99.90
18613;DHT22;9436;52.152;21.032;2023-02-28T09:28:13;2.40;99.90
18613;DHT22;9436;52.152;21.032;2023-02-28T09:30:45;2.30;99.90
18613;DHT22;9436;52.152;21.032;2023-02-28T09:33:12;2.50;99.90
18613;DHT22;9436;52.152;21.032;2023-02-28T09:35:39;2.60;99.90
18613;DHT22;9436;52.152;21.032;2023-02-28T09:38:07;2.70;99.90
18613;DHT22;9436;52.152;21.032;2023-02-28T09:40:36;3.00;99.90
18613;DHT22;9436;52.152;21.032;2023-02-28T09:43:05;3.20;99.90
18613;DHT22;9436;52.152;21.032;2023-02-28T09:45:35;3.20;99.90
18613;DHT22;9436;52.152;21.032;2023-02-28T09:48:12;3.30;99.90
18613;DHT22;9436;52.152;21.032;2023-02-28T09:50:45;3.50;99.90
18613;DHT22;9436;52.152;21.032;2023-02-28T09:53:19;3.60;99.90
18613;DHT22;9436;52.152;21.032;2023-02-28T09:55:50;3.60;99.90
18613;DHT22;9436;52.152;21.032;2023-02-28T09:58:24;3.40;99.90
18613;DHT22;9436;52.152;21.032;2023-02-28T10:00:58;3.50;99.90
18613;DHT22;9436;52.152;21.032;2023-02-28T10:03:33;3.30;99.90
18613;DHT22;9436;52.152;21.032;2023-02-28T10:06:07;3.40;99.90
18613;DHT22;9436;52.152;21.032;2023-02-28T10:08:37;3.40;99.90
18613;DHT22;9436;52.152;21.032;2023-02-28T10:11:11;3.40;99.90
18613;DHT22;9436;52.152;21.032;2023-02-28T10:13:50;3.60;99.90
18613;DHT22;9436;52.152;21.032;2023-02-28T10:16:23;3.80;99.90
18613;DHT22;9436;52.152;21.032;2023-02-28T10:18:57;3.70;99.90
18613;DHT22;9436;52.152;21.032;2023-02-28T10:21:31;3.80;99.90
18613;DHT22;9436;52.152;21.032;2023-02-28T10:24:05;3.60;99.90
18613;DHT22;9436;52.152;21.032;2023-02-28T10:26:38;3.70;99.90
18613;DHT22;9436;52.152;21.032;2023-02-28T10:29:07;3.90;99.90
18613;DHT22;9436;52.152;21.032;2023-02-28T10:31:34;4.00;99.90
18613;DHT22;9436;52.152;21.032;2023-02-28T10:34:03;4.10;99.90
18613;DHT22;9436;52.152;21.032;2023-02-28T10:36:32;4.00;99.90
18613;DHT22;9436;52.152;21.032;2023-02-28T10:38:59;4.00;99.90
18613;DHT22;9436;52.152;21.032;2023-02-28T10:41:28;4.00;99.90
18613;DHT22;9436;52.152;21.032;2023-02-28T10:44:14;4.10;99.90
18613;DHT22;9436;52.152;21.032;2023-02-28T10:46:42;4.30;99.90
18613;DHT22;9436;52.152;21.032;2023-02-28T10:49:17;4.40;99.90
18613;DHT22;9436;52.152;21.032;2023-02-28T10:51:45;4.30;99.90
18613;DHT22;9436;52.152;21.032;2023-02-28T10:54:28;4.30;99.90
18613;DHT22;9436;52.152;21.032;2023-02-28T10:57:17;4.10;99.90
18613;DHT22;9436;52.152;21.032;2023-02-28T10:59:45;4.50;99.90
18613;DHT22;9436;52.152;21.032;2023-02-28T11:02:30;4.40;99.90
18613;DHT22;9436;52.152;21.032;2023-02-28T11:04:59;4.20;99.90
18613;DHT22;9436;52.152;21.032;2023-02-28T11:07:28;4.30;99.90
18613;DHT22;9436;52.152;21.032;2023-02-28T11:09:56;4.70;99.90
18613;DHT22;9436;52.152;21.032;2023-02-28T11:12:26;4.60;99.90
18613;DHT22;9436;52.152;21.032;2023-02-28T11:14:57;4.60;99.90
18613;DHT22;9436;52.152;21.032;2023-02-28T11:17:27;4.90;99.90
18613;DHT22;9436;52.152;21.032;2023-02-28T11:19:57;5.20;99.90
18613;DHT22;9436;52.152;21.032;2023-02-28T11:22:28;5.10;99.90
18613;DHT22;9436;52.152;21.032;2023-02-28T11:24:59;5.30;99.90
18613;DHT22;9436;52.152;21.032;2023-02-28T11:27:46;5.00;99.90
18613;DHT22;9436;52.152;21.032;2023-02-28T11:30:30;4.80;99.90
18613;DHT22;9436;52.152;21.032;2023-02-28T11:32:57;4.80;99.90
18613;DHT22;9436;52.152;21.032;2023-02-28T11:35:28;4.90;99.90
18613;DHT22;9436;52.152;21.032;2023-02-28T11:37:58;4.90;99.90
18613;DHT22;9436;52.152;21.032;2023-02-28T11:40:33;4.90;99.90
18613;DHT22;9436;52.152;21.032;2023-02-28T11:43:17;5.10;99.90
18613;DHT22;9436;52.152;21.032;2023-02-28T11:46:04;5.10;99.90
18613;DHT22;9436;52.152;21.032;2023-02-28T11:48:41;5.00;99.90
18613;DHT22;9436;52.152;21.032;2023-02-28T11:51:18;4.70;99.90
18613;DHT22;9436;52.152;21.032;2023-02-28T11:54:01;4.70;99.90
18613;DHT22;9436;52.152;21.032;2023-02-28T11:56:33;5.00;99.90
18613;DHT22;9436;52.152;21.032;2023-02-28T11:59:14;5.00;99.90
18613;DHT22;9436;52.152;21.032;2023-02-28T12:02:00;5.10;99.90
18613;DHT22;9436;52.152;21.032;2023-02-28T12:04:37;5.40;99.90
18613;DHT22;9436;52.152;21.032;2023-02-28T12:07:15;5.60;99.90
18613;DHT22;9436;52.152;21.032;2023-02-28T12:09:56;5.60;99.90
18613;DHT22;9436;52.152;21.032;2023-02-28T12:12:38;5.50;99.90
18613;DHT22;9436;52.152;21.032;2023-02-28T12:15:34;5.40;99.90
18613;DHT22;9436;52.152;21.032;2023-02-28T12:18:18;5.60;99.90
18613;DHT22;9436;52.152;21.032;2023-02-28T12:20:53;5.40;99.90
18613;DHT22;9436;52.152;21.032;2023-02-28T12:23:47;5.50;99.90
18613;DHT22;9436;52.152;21.032;2023-02-28T12:26:23;5.50;99.90
18613;DHT22;9436;52.152;21.032;2023-02-28T12:29:01;5.50;99.90
18613;DHT22;9436;52.152;21.032;2023-02-28T12:31:35;5.50;99.90
18613;DHT22;9436;52.152;21.032;2023-02-28T12:34:06;5.50;99.90
18613;DHT22;9436;52.152;21.032;2023-02-28T12:36:36;5.50;99.90
18613;DHT22;9436;52.152;21.032;2023-02-28T12:39:09;5.50;99.90
18613;DHT22;9436;52.152;21.032;2023-02-28T12:41:42;5.40;99.90
18613;DHT22;9436;52.152;21.032;2023-02-28T12:44:14;5.30;99.90
18613;DHT22;9436;52.152;21.032;2023-02-28T12:46:48;5.20;99.90
18613;DHT22;9436;52.152;21.032;2023-02-28T12:49:19;5.30;99.90
18613;DHT22;9436;52.152;21.032;2023-02-28T12:51:49;6.20;99.90
18613;DHT22;9436;52.152;21.032;2023-02-28T12:54:22;6.50;99.90
18613;DHT22;9436;52.152;21.032;2023-02-28T12:56:59;6.60;99.90
18613;DHT22;9436;52.152;21.032;2023-02-28T12:59:35;6.30;99.90
18613;DHT22;9436;52.152;21.032;2023-02-28T13:02:27;6.70;99.90
18613;DHT22;9436;52.152;21.032;2023-02-28T13:05:39;7.30;99.90
18613;DHT22;9436;52.152;21.032;2023-02-28T13:08:28;7.70;99.90
18613;DHT22;9436;52.152;21.032;2023-02-28T13:11:03;7.90;99.30
18613;DHT22;9436;52.152;21.032;2023-02-28T13:13:32;7.90;99.50
18613;DHT22;9436;52.152;21.032;2023-02-28T13:16:02;7.70;98.70
18613;DHT22;9436;52.152;21.032;2023-02-28T13:18:35;7.50;99.90
18613;DHT22;9436;52.152;21.032;2023-02-28T13:21:06;7.50;99.40
18613;DHT22;9436;52.152;21.032;2023-02-28T13:29:33;7.70;99.10
18613;DHT22;9436;52.152;21.032;2023-02-28T13:32:34;6.80;98.50
18613;DHT22;9436;52.152;21.032;2023-02-28T13:35:37;6.30;99.40
18613;DHT22;9436;52.152;21.032;2023-02-28T13:38:24;6.00;99.80
18613;DHT22;9436;52.152;21.032;2023-02-28T13:40:51;5.90;99.90
18613;DHT22;9436;52.152;21.032;2023-02-28T13:43:18;6.00;99.90
18613;DHT22;9436;52.152;21.032;2023-02-28T13:46:08;5.90;99.90
18613;DHT22;9436;52.152;21.032;2023-02-28T13:48:37;5.70;99.90
18613;DHT22;9436;52.152;21.032;2023-02-28T13:51:37;5.60;99.90
18613;DHT22;9436;52.152;21.032;2023-02-28T13:54:21;5.40;99.90
18613;DHT22;9436;52.152;21.032;2023-02-28T13:57:00;5.40;99.90
18613;DHT22;9436;52.152;21.032;2023-02-28T13:59:35;5.60;99.90
18613;DHT22;9436;52.152;21.032;2023-02-28T14:02:27;5.70;99.90
18613;DHT22;9436;52.152;21.032;2023-02-28T14:05:06;5.80;99.90
18613;DHT22;9436;52.152;21.032;2023-02-28T14:07:42;5.70;99.90
18613;DHT22;9436;52.152;21.032;2023-02-28T14:10:22;5.70;99.90
18613;DHT22;9436;52.152;21.032;2023-02-28T14:13:02;5.70;99.90
18613;DHT22;9436;52.152;21.032;2023-02-28T14:15:46;6.30;99.90
18613;DHT22;9436;52.152;21.032;2023-02-28T14:18:21;6.60;99.90
18613;DHT22;9436;52.152;21.032;2023-02-28T14:20:53;6.30;99.90
18613;DHT22;9436;52.152;21.032;2023-02-28T14:23:56;6.40;99.90
18613;DHT22;9436;52.152;21.032;2023-02-28T14:26:51;6.50;99.90
18613;DHT22;9436;52.152;21.032;2023-02-28T14:29:51;6.30;99.90
18613;DHT22;9436;52.152;21.032;2023-02-28T14:32:27;5.90;99.90
18613;DHT22;9436;52.152;21.032;2023-02-28T14:35:05;5.80;99.90
18613;DHT22;9436;52.152;21.032;2023-02-28T14:37:39;5.80;99.90
18613;DHT22;9436;52.152;21.032;2023-02-28T14:40:12;6.00;99.90
18613;DHT22;9436;52.152;21.032;2023-02-28T14:42:47;6.00;99.90
18613;DHT22;9436;52.152;21.032;2023-02-28T14:45:18;6.20;99.90
18613;DHT22;9436;52.152;21.032;2023-02-28T14:47:47;6.50;99.90
18613;DHT22;9436;52.152;21.032;2023-02-28T14:50:20;6.50;99.90
18613;DHT22;9436;52.152;21.032;2023-02-28T14:52:50;6.50;99.90
18613;DHT22;9436;52.152;21.032;2023-02-28T14:55:19;6.60;99.90
18613;DHT22;9436;52.152;21.032;2023-02-28T14:57:54;6.90;99.90
18613;DHT22;9436;52.152;21.032;2023-02-28T15:00:23;7.50;99.90
18613;DHT22;9436;52.152;21.032;2023-02-28T15:02:51;7.90;99.90
18613;DHT22;9436;52.152;21.032;2023-02-28T15:05:31;7.60;99.90
18613;DHT22;9436;52.152;21.032;2023-02-28T15:08:10;7.40;99.90
18613;DHT22;9436;52.152;21.032;2023-02-28T15:10:38;6.90;99.90
18613;DHT22;9436;52.152;21.032;2023-02-28T15:13:07;6.50;99.90
18613;DHT22;9436;52.152;21.032;2023-02-28T15:15:43;6.40;99.90
18613;DHT22;9436;52.152;21.032;2023-02-28T15:18:18;6.10;99.90
18613;DHT22;9436;52.152;21.032;2023-02-28T15:20:51;5.80;99.90
18613;DHT22;9436;52.152;21.032;2023-02-28T15:23:20;5.50;99.90
18613;DHT22;9436;52.152;21.032;2023-02-28T15:25:48;5.50;99.90
18613;DHT22;9436;52.152;21.032;2023-02-28T15:28:19;5.30;99.90
18613;DHT22;9436;52.152;21.032;2023-02-28T15:30:56;5.20;99.90
18613;DHT22;9436;52.152;21.032;2023-02-28T15:33:25;5.30;99.90
18613;DHT22;9436;52.152;21.032;2023-02-28T15:36:04;5.50;99.90
18613;DHT22;9436;52.152;21.032;2023-02-28T15:38:34;5.50;99.90
18613;DHT22;9436;52.152;21.032;2023-02-28T15:41:02;5.90;99.90
18613;DHT22;9436;52.152;21.032;2023-02-28T15:43:37;6.10;99.90
18613;DHT22;9436;52.152;21.032;2023-02-28T15:46:07;6.10;99.90
18613;DHT22;9436;52.152;21.032;2023-02-28T15:48:37;6.20;99.90
18613;DHT22;9436;52.152;21.032;2023-02-28T15:51:08;6.70;99.90
18613;DHT22;9436;52.152;21.032;2023-02-28T15:53:38;7.10;99.90
18613;DHT22;9436;52.152;21.032;2023-02-28T15:56:16;7.40;99.90
18613;DHT22;9436;52.152;21.032;2023-02-28T15:58:45;7.60;99.90
18613;DHT22;9436;52.152;21.032;2023-02-28T16:01:23;7.70;99.90
18613;DHT22;9436;52.152;21.032;2023-02-28T16:03:53;7.80;99.90
18613;DHT22;9436;52.152;21.032;2023-02-28T16:06:37;7.90;99.90
18613;DHT22;9436;52.152;21.032;2023-02-28T16:09:08;7.90;99.90
18613;DHT22;9436;52.152;21.032;2023-02-28T16:11:40;7.10;99.90
18613;DHT22;9436;52.152;21.032;2023-02-28T16:14:15;6.30;99.90
18613;DHT22;9436;52.152;21.032;2023-02-28T16:16:44;5.80;99.90
18613;DHT22;9436;52.152;21.032;2023-02-28T16:19:12;5.30;99.90
18613;DHT22;9436;52.152;21.032;2023-02-28T16:21:40;5.00;99.90
18613;DHT22;9436;52.152;21.032;2023-02-28T16:24:07;4.90;99.90
18613;DHT22;9436;52.152;21.032;2023-02-28T16:26:35;4.60;99.90